Time;durP1;ratioP1;P1;durP2;ratioP2;P2;SDS_P1;SDS_P2;PMS_P1;PMS_P2;Temp;Humidity;BMP_temperature;BMP_pressure;BME280_temperature;BME280_humidity;BME280_pressure;Samples;Min_cycle;Max_cycle;Signal;HPM_P1;HPM_P2
2023/04/04 00:01:28;;;;;;;7.35;3.05;;;;;;;;;;4993854;28;20200;-67
2023/04/04 00:03:56;;;;;;;4.72;3.85;;;;;;;;;;5013048;28;20207;-66
2023/04/04 00:06:23;;;;;;;5.30;2.85;;;;;;;;;;5013445;28;20203;-67
2023/04/04 00:08:50;;;;;;;6.43;3.28;;;;;;;;;;5012798;28;20194;-67
2023/04/04 00:11:17;;;;;;;5.82;3.55;;;;;;;;;;5013275;28;20209;-67
2023/04/04 00:13:46;;;;;;;4.20;3.22;;;;;;;;;;5013897;28;20198;-66
2023/04/04 00:16:13;;;;;;;3.67;3.20;;;;;;;;;;5013901;28;20281;-66
2023/04/04 00:18:40;;;;;;;5.05;2.78;;;;;;;;;;5013462;28;20195;-67
2023/04/04 00:21:07;;;;;;;3.40;2.75;;;;;;;;;;5013609;28;20196;-67
2023/04/04 00:23:35;;;;;;;6.10;3.25;;;;;;;;;;5013793;28;20198;-66
2023/04/04 00:26:02;;;;;;;6.10;3.65;;;;;;;;;;5013013;28;20673;-67
2023/04/04 00:28:29;;;;;;;5.38;3.05;;;;;;;;;;5013091;28;20210;-66
2023/04/04 00:30:58;;;;;;;3.28;2.97;;;;;;;;;;5012889;28;20199;-67
2023/04/04 00:33:25;;;;;;;3.63;2.75;;;;;;;;;;5013110;28;20230;-67
2023/04/04 00:35:52;;;;;;;7.53;3.42;;;;;;;;;;5012846;28;20227;-67
2023/04/04 00:38:19;;;;;;;3.10;2.80;;;;;;;;;;5012924;28;20227;-66
2023/04/04 00:40:50;;;;;;;4.47;3.20;;;;;;;;;;5012870;28;20201;-67
2023/04/04 00:43:17;;;;;;;5.00;3.40;;;;;;;;;;5013428;28;20199;-67
2023/04/04 00:45:45;;;;;;;3.50;3.20;;;;;;;;;;5013124;28;20195;-67
2023/04/04 00:48:14;;;;;;;8.85;4.13;;;;;;;;;;5013208;28;20298;-66
2023/04/04 00:50:41;;;;;;;6.65;2.80;;;;;;;;;;5012823;28;20203;-67
2023/04/04 00:53:08;;;;;;;3.33;2.80;;;;;;;;;;5013047;28;20229;-66
2023/04/04 00:55:37;;;;;;;4.75;2.90;;;;;;;;;;5016544;28;20227;-66
2023/04/04 00:58:05;;;;;;;4.05;3.10;;;;;;;;;;5016611;28;20257;-66
2023/04/04 01:00:33;;;;;;;8.32;3.25;;;;;;;;;;5016304;28;20239;-66
2023/04/04 01:03:01;;;;;;;4.75;2.65;;;;;;;;;;5007021;28;20208;-66
2023/04/04 01:05:30;;;;;;;3.00;2.70;;;;;;;;;;4996532;28;20294;-67
2023/04/04 01:07:57;;;;;;;4.20;3.80;;;;;;;;;;4998457;28;20207;-67
2023/04/04 01:10:24;;;;;;;3.70;3.00;;;;;;;;;;5015540;28;20205;-66
2023/04/04 01:12:52;;;;;;;4.28;2.65;;;;;;;;;;5016269;28;20219;-66
2023/04/04 01:15:19;;;;;;;6.82;3.55;;;;;;;;;;5016529;28;20711;-66
2023/04/04 01:17:46;;;;;;;4.38;3.22;;;;;;;;;;5016208;28;20246;-67
2023/04/04 01:20:15;;;;;;;4.75;3.10;;;;;;;;;;5015987;28;20202;-66
2023/04/04 01:22:47;;;;;;;6.75;3.00;;;;;;;;;;5015811;28;20203;-66
2023/04/04 01:25:15;;;;;;;7.45;3.50;;;;;;;;;;5017028;28;20187;-66
2023/04/04 01:27:43;;;;;;;7.10;4.18;;;;;;;;;;5016039;28;20287;-66
2023/04/04 01:30:11;;;;;;;5.25;3.25;;;;;;;;;;5015971;28;20201;-66
2023/04/04 01:32:43;;;;;;;3.65;2.90;;;;;;;;;;5015820;28;20237;-66
2023/04/04 01:35:20;;;;;;;4.10;3.00;;;;;;;;;;5016298;28;20318;-66
2023/04/04 01:37:50;;;;;;;3.63;2.90;;;;;;;;;;5016053;28;20667;-66
2023/04/04 01:40:19;;;;;;;7.05;3.20;;;;;;;;;;5016414;28;20213;-66
2023/04/04 01:42:48;;;;;;;3.13;2.80;;;;;;;;;;5015477;28;20206;-67
2023/04/04 01:45:15;;;;;;;3.45;3.15;;;;;;;;;;5015497;28;20669;-66
2023/04/04 01:47:43;;;;;;;5.75;3.97;;;;;;;;;;5015891;28;20256;-66
2023/04/04 01:50:10;;;;;;;3.38;2.85;;;;;;;;;;5015723;28;20626;-66
2023/04/04 01:52:38;;;;;;;4.95;3.40;;;;;;;;;;5015728;28;20225;-66
2023/04/04 01:55:07;;;;;;;6.43;3.50;;;;;;;;;;5015673;28;20196;-66
2023/04/04 01:57:35;;;;;;;3.58;2.83;;;;;;;;;;5015125;28;20202;-66
2023/04/04 02:00:04;;;;;;;5.00;3.50;;;;;;;;;;5015550;28;20615;-66
2023/04/04 02:02:31;;;;;;;16.02;3.83;;;;;;;;;;5009626;28;20217;-66
2023/04/04 02:04:59;;;;;;;6.78;2.92;;;;;;;;;;4995627;28;20202;-66
2023/04/04 02:07:26;;;;;;;7.35;3.22;;;;;;;;;;4995303;28;20722;-66
2023/04/04 02:09:53;;;;;;;4.10;3.10;;;;;;;;;;4999207;28;20572;-66
2023/04/04 02:12:21;;;;;;;6.05;3.25;;;;;;;;;;4996176;28;20309;-66
2023/04/04 02:14:48;;;;;;;3.70;3.35;;;;;;;;;;4995273;28;20284;-67
2023/04/04 02:17:17;;;;;;;9.07;3.33;;;;;;;;;;4996225;28;20207;-66
2023/04/04 02:19:44;;;;;;;4.00;3.38;;;;;;;;;;4995252;28;20726;-67
2023/04/04 02:22:11;;;;;;;4.78;3.00;;;;;;;;;;4995459;28;20534;-67
2023/04/04 02:24:38;;;;;;;6.40;3.70;;;;;;;;;;4995732;28;20567;-66
2023/04/04 02:27:05;;;;;;;5.57;2.95;;;;;;;;;;4995470;28;20202;-66
2023/04/04 02:29:32;;;;;;;6.00;3.58;;;;;;;;;;4995056;28;20197;-66
2023/04/04 02:32:00;;;;;;;5.03;3.42;;;;;;;;;;4994859;28;20199;-67
2023/04/04 02:34:28;;;;;;;4.50;3.03;;;;;;;;;;4994884;28;20311;-67
2023/04/04 02:36:55;;;;;;;6.10;3.95;;;;;;;;;;4995344;28;20183;-66
2023/04/04 02:39:22;;;;;;;5.30;3.65;;;;;;;;;;4995126;28;20201;-67
2023/04/04 02:41:50;;;;;;;6.93;3.20;;;;;;;;;;4995318;28;20203;-67
2023/04/04 02:44:17;;;;;;;3.95;3.55;;;;;;;;;;4995050;28;20226;-67
2023/04/04 02:46:44;;;;;;;4.38;3.55;;;;;;;;;;4995023;28;20199;-67
2023/04/04 02:49:12;;;;;;;5.45;3.90;;;;;;;;;;4994923;28;20202;-67
2023/04/04 02:51:40;;;;;;;7.22;3.33;;;;;;;;;;4994935;28;20554;-67
2023/04/04 02:54:08;;;;;;;4.75;3.13;;;;;;;;;;4994840;28;20241;-67
2023/04/04 02:56:37;;;;;;;3.40;2.70;;;;;;;;;;4994797;28;20233;-67
2023/04/04 02:59:04;;;;;;;3.75;3.10;;;;;;;;;;4994479;28;20203;-67
2023/04/04 03:01:32;;;;;;;4.93;3.88;;;;;;;;;;4994630;28;20198;-68
2023/04/04 03:03:59;;;;;;;4.60;3.25;;;;;;;;;;4997468;28;20204;-67
2023/04/04 03:06:26;;;;;;;7.00;3.30;;;;;;;;;;4994694;28;20204;-67
2023/04/04 03:08:55;;;;;;;5.63;3.50;;;;;;;;;;4997253;28;20201;-67
2023/04/04 03:11:22;;;;;;;3.40;3.00;;;;;;;;;;4994307;28;20666;-66
2023/04/04 03:13:50;;;;;;;8.13;3.08;;;;;;;;;;4994702;28;20270;-66
2023/04/04 03:16:18;;;;;;;6.53;3.20;;;;;;;;;;4994385;28;20285;-67
2023/04/04 03:18:46;;;;;;;4.35;3.70;;;;;;;;;;4994441;28;20213;-67
2023/04/04 03:21:13;;;;;;;7.22;3.30;;;;;;;;;;4994581;28;20207;-67
2023/04/04 03:23:41;;;;;;;5.07;3.50;;;;;;;;;;4994077;28;20206;-67
2023/04/04 03:26:10;;;;;;;6.97;3.40;;;;;;;;;;4994157;28;20249;-67
2023/04/04 03:28:37;;;;;;;7.90;3.20;;;;;;;;;;4994314;28;20195;-67
2023/04/04 03:31:05;;;;;;;6.55;4.22;;;;;;;;;;4994031;28;20198;-67
2023/04/04 03:33:33;;;;;;;6.78;3.13;;;;;;;;;;4993801;28;20583;-67
2023/04/04 03:36:00;;;;;;;3.60;3.30;;;;;;;;;;4994696;28;20583;-67
2023/04/04 03:38:27;;;;;;;4.53;3.70;;;;;;;;;;4994221;28;20205;-66
2023/04/04 03:41:02;;;;;;;6.22;3.10;;;;;;;;;;4994279;28;20197;-67
2023/04/04 03:43:31;;;;;;;4.38;2.90;;;;;;;;;;4993904;28;20198;-67
2023/04/04 03:46:00;;;;;;;4.85;3.70;;;;;;;;;;4994197;28;20209;-67
2023/04/04 03:48:28;;;;;;;5.05;3.08;;;;;;;;;;4993741;28;20204;-67
2023/04/04 03:50:55;;;;;;;5.75;3.95;;;;;;;;;;4994674;28;20290;-67
2023/04/04 03:53:22;;;;;;;6.22;3.22;;;;;;;;;;4993925;28;20269;-67
2023/04/04 03:55:49;;;;;;;4.65;3.05;;;;;;;;;;5013103;28;20204;-67
2023/04/04 03:58:16;;;;;;;10.80;4.18;;;;;;;;;;5013041;28;20205;-67
2023/04/04 04:00:45;;;;;;;7.50;3.63;;;;;;;;;;5013693;28;20193;-66
2023/04/04 04:03:12;;;;;;;8.63;3.40;;;;;;;;;;5014016;28;20203;-67
2023/04/04 04:05:40;;;;;;;10.05;4.55;;;;;;;;;;5013846;28;20204;-67
2023/04/04 04:08:07;;;;;;;4.28;3.75;;;;;;;;;;5013035;28;20197;-67
2023/04/04 04:10:35;;;;;;;4.18;2.90;;;;;;;;;;5013034;28;20203;-67
2023/04/04 04:13:02;;;;;;;3.30;3.00;;;;;;;;;;5013280;28;20556;-67
2023/04/04 04:15:29;;;;;;;5.50;3.47;;;;;;;;;;5013200;28;20207;-67
2023/04/04 04:17:58;;;;;;;5.05;2.95;;;;;;;;;;5013652;28;20204;-67
2023/04/04 04:20:25;;;;;;;4.70;3.70;;;;;;;;;;5012912;28;20204;-67
2023/04/04 04:22:52;;;;;;;5.68;3.88;;;;;;;;;;5012838;28;20701;-66
2023/04/04 04:25:19;;;;;;;5.15;3.60;;;;;;;;;;5013060;28;20237;-67
2023/04/04 04:27:46;;;;;;;6.07;4.00;;;;;;;;;;5013621;28;20288;-67
2023/04/04 04:30:14;;;;;;;7.85;3.67;;;;;;;;;;5016140;28;20239;-67
2023/04/04 04:32:41;;;;;;;4.95;3.88;;;;;;;;;;5016676;28;20202;-67
2023/04/04 04:35:10;;;;;;;6.75;3.80;;;;;;;;;;5017037;28;20232;-67
2023/04/04 04:37:37;;;;;;;14.63;3.95;;;;;;;;;;5016980;28;20225;-67
2023/04/04 04:40:05;;;;;;;7.97;4.40;;;;;;;;;;5016619;28;20665;-67
2023/04/04 04:42:32;;;;;;;3.90;3.50;;;;;;;;;;5016920;28;20205;-71
2023/04/04 04:44:59;;;;;;;4.68;4.00;;;;;;;;;;5016925;28;20205;-77
2023/04/04 04:47:26;;;;;;;10.65;4.63;;;;;;;;;;5016851;28;20733;-71
2023/04/04 04:49:54;;;;;;;5.72;3.63;;;;;;;;;;5016716;28;20203;-70
2023/04/04 04:52:22;;;;;;;4.35;3.20;;;;;;;;;;5016463;28;20260;-70
2023/04/04 04:54:50;;;;;;;4.50;3.20;;;;;;;;;;5016415;28;20222;-70
2023/04/04 04:57:17;;;;;;;6.10;3.78;;;;;;;;;;5016332;28;20204;-70
2023/04/04 04:59:44;;;;;;;3.45;3.15;;;;;;;;;;5016259;28;20198;-70
2023/04/04 05:02:11;;;;;;;7.68;3.78;;;;;;;;;;5016603;28;20201;-70
2023/04/04 05:04:40;;;;;;;4.15;3.25;;;;;;;;;;5016415;28;20205;-70
2023/04/04 05:07:07;;;;;;;4.70;3.53;;;;;;;;;;5016123;28;20201;-70
2023/04/04 05:09:36;;;;;;;8.27;4.03;;;;;;;;;;5016019;28;20196;-70
2023/04/04 05:12:03;;;;;;;5.70;3.80;;;;;;;;;;5016682;28;20199;-70
2023/04/04 05:14:30;;;;;;;4.05;3.58;;;;;;;;;;5015881;28;20218;-71
2023/04/04 05:16:57;;;;;;;6.20;4.50;;;;;;;;;;5016322;28;20234;-70
2023/04/04 05:19:25;;;;;;;8.35;3.80;;;;;;;;;;5016254;28;20197;-70
2023/04/04 05:21:52;;;;;;;5.05;3.75;;;;;;;;;;5016287;28;20198;-70
2023/04/04 05:24:21;;;;;;;12.38;4.00;;;;;;;;;;5015735;28;20207;-70
2023/04/04 05:26:50;;;;;;;6.60;3.45;;;;;;;;;;5016053;28;20536;-70
2023/04/04 05:29:17;;;;;;;4.13;3.05;;;;;;;;;;5015674;28;20253;-70
2023/04/04 05:31:44;;;;;;;4.70;3.90;;;;;;;;;;5016008;28;20226;-70
2023/04/04 05:34:11;;;;;;;5.70;4.40;;;;;;;;;;5015396;28;20236;-70
2023/04/04 05:36:39;;;;;;;7.50;5.30;;;;;;;;;;5015952;28;20635;-70
2023/04/04 05:39:06;;;;;;;7.55;3.80;;;;;;;;;;5016086;28;20259;-70
2023/04/04 05:41:33;;;;;;;4.72;3.92;;;;;;;;;;5015590;28;20197;-70
2023/04/04 05:44:02;;;;;;;8.73;5.00;;;;;;;;;;5015727;28;20197;-70
2023/04/04 05:46:29;;;;;;;6.05;4.50;;;;;;;;;;5015336;28;20202;-70
2023/04/04 05:48:56;;;;;;;4.57;4.05;;;;;;;;;;5015642;28;20193;-70
2023/04/04 05:51:23;;;;;;;6.07;3.90;;;;;;;;;;5015248;28;20298;-70
2023/04/04 05:53:51;;;;;;;3.88;3.53;;;;;;;;;;5015593;28;20551;-70
2023/04/04 05:56:18;;;;;;;4.95;3.45;;;;;;;;;;5015399;28;20256;-70
2023/04/04 05:58:45;;;;;;;6.95;5.00;;;;;;;;;;5015490;28;20622;-70
2023/04/04 06:01:14;;;;;;;8.60;4.50;;;;;;;;;;5015728;28;20608;-70
2023/04/04 06:03:41;;;;;;;8.55;4.25;;;;;;;;;;5015242;28;20202;-70
2023/04/04 06:06:09;;;;;;;3.70;3.40;;;;;;;;;;5015328;28;20201;-70
2023/04/04 06:08:36;;;;;;;5.78;3.92;;;;;;;;;;5015045;28;20201;-71
2023/04/04 06:11:03;;;;;;;4.50;4.07;;;;;;;;;;5015201;28;20285;-71
2023/04/04 06:13:30;;;;;;;7.03;4.25;;;;;;;;;;5015673;28;20235;-70
2023/04/04 06:15:57;;;;;;;5.55;4.20;;;;;;;;;;5015466;28;20196;-70
2023/04/04 06:18:26;;;;;;;4.50;4.10;;;;;;;;;;5015140;28;20223;-70
2023/04/04 06:20:53;;;;;;;6.03;4.22;;;;;;;;;;5014923;28;20197;-70
2023/04/04 06:23:20;;;;;;;5.53;3.50;;;;;;;;;;5015363;28;20212;-70
2023/04/04 06:25:48;;;;;;;8.27;4.07;;;;;;;;;;5014931;28;20193;-70
2023/04/04 06:28:16;;;;;;;8.00;3.55;;;;;;;;;;5015772;28;20244;-70
2023/04/04 06:30:44;;;;;;;8.20;4.03;;;;;;;;;;5014836;28;20656;-70
2023/04/04 06:33:11;;;;;;;5.97;3.60;;;;;;;;;;5014818;28;20288;-70
2023/04/04 06:35:39;;;;;;;9.02;3.70;;;;;;;;;;5014621;28;20253;-71
2023/04/04 06:38:07;;;;;;;5.55;4.00;;;;;;;;;;5014795;28;20198;-70
2023/04/04 06:40:35;;;;;;;6.22;4.22;;;;;;;;;;5015411;28;20199;-70
2023/04/04 06:43:02;;;;;;;6.90;3.97;;;;;;;;;;5014687;28;20206;-70
2023/04/04 06:45:32;;;;;;;6.65;4.30;;;;;;;;;;5014592;28;20210;-71
2023/04/04 06:48:00;;;;;;;6.20;4.22;;;;;;;;;;5014728;28;20298;-70
2023/04/04 06:50:27;;;;;;;10.23;5.07;;;;;;;;;;5014373;28;20198;-70
2023/04/04 06:52:56;;;;;;;10.98;4.20;;;;;;;;;;5013933;28;20199;-70
2023/04/04 06:55:23;;;;;;;5.65;3.75;;;;;;;;;;5014419;28;20222;-69
2023/04/04 06:57:50;;;;;;;6.85;3.72;;;;;;;;;;5014044;28;20292;-70
2023/04/04 07:00:18;;;;;;;8.85;3.90;;;;;;;;;;5014084;28;20207;-70
2023/04/04 07:02:45;;;;;;;5.90;3.97;;;;;;;;;;5014439;28;20202;-70
2023/04/04 07:05:16;;;;;;;8.70;4.00;;;;;;;;;;5014484;28;20253;-70
2023/04/04 07:07:43;;;;;;;5.82;4.00;;;;;;;;;;5014410;28;20190;-72
2023/04/04 07:10:12;;;;;;;6.53;3.90;;;;;;;;;;5014258;28;20293;-71
2023/04/04 07:12:40;;;;;;;6.95;3.90;;;;;;;;;;5013815;28;20289;-71
2023/04/04 07:15:07;;;;;;;5.55;3.53;;;;;;;;;;5014432;28;20584;-71
2023/04/04 07:17:37;;;;;;;4.30;3.90;;;;;;;;;;5013986;28;20195;-71
2023/04/04 07:20:05;;;;;;;6.60;4.38;;;;;;;;;;5015031;28;20555;-70
2023/04/04 07:22:32;;;;;;;7.95;4.55;;;;;;;;;;5013622;28;20211;-71
2023/04/04 07:24:59;;;;;;;6.88;5.05;;;;;;;;;;5013699;28;20673;-71
2023/04/04 07:27:28;;;;;;;8.55;5.97;;;;;;;;;;5013746;28;20675;-71
2023/04/04 07:29:55;;;;;;;8.80;4.78;;;;;;;;;;5013948;28;20202;-71
2023/04/04 07:32:23;;;;;;;10.93;4.50;;;;;;;;;;5013762;28;20196;-72
2023/04/04 07:34:51;;;;;;;6.22;3.50;;;;;;;;;;5013711;28;20235;-71
2023/04/04 07:37:18;;;;;;;4.00;3.20;;;;;;;;;;5013551;28;20243;-71
2023/04/04 07:39:46;;;;;;;8.68;3.60;;;;;;;;;;5013567;28;20657;-71
2023/04/04 07:42:13;;;;;;;8.13;3.90;;;;;;;;;;5014026;28;20724;-71
2023/04/04 07:44:42;;;;;;;8.63;3.65;;;;;;;;;;5013629;28;20206;-71
2023/04/04 07:47:10;;;;;;;5.93;3.88;;;;;;;;;;5013902;28;20213;-71
2023/04/04 07:49:37;;;;;;;4.30;4.00;;;;;;;;;;5013790;28;20214;-71
2023/04/04 07:52:05;;;;;;;7.85;3.85;;;;;;;;;;5013881;28;20196;-71
2023/04/04 07:54:32;;;;;;;11.00;6.30;;;;;;;;;;5013277;28;20298;-71
2023/04/04 07:56:59;;;;;;;6.25;4.40;;;;;;;;;;5013414;28;20202;-71
2023/04/04 07:59:26;;;;;;;7.25;4.00;;;;;;;;;;5013276;28;20199;-71
2023/04/04 08:01:55;;;;;;;9.65;5.10;;;;;;;;;;5013589;28;20196;-71
2023/04/04 08:04:22;;;;;;;8.20;4.20;;;;;;;;;;5015562;28;20214;-71
2023/04/04 08:06:49;;;;;;;6.35;4.53;;;;;;;;;;5017509;28;20199;-71
2023/04/04 08:09:16;;;;;;;7.18;3.95;;;;;;;;;;5017268;28;20230;-71
2023/04/04 08:11:44;;;;;;;7.82;4.28;;;;;;;;;;5017137;28;20205;-72
2023/04/04 08:14:12;;;;;;;6.90;4.53;;;;;;;;;;5017449;28;20280;-70
2023/04/04 08:16:39;;;;;;;8.25;3.47;;;;;;;;;;5017461;28;20198;-71
2023/04/04 08:19:07;;;;;;;4.65;3.42;;;;;;;;;;5017402;28;20202;-71
2023/04/04 08:21:34;;;;;;;4.97;4.20;;;;;;;;;;5018146;28;20513;-72
2023/04/04 08:24:02;;;;;;;7.75;4.28;;;;;;;;;;5017288;28;20199;-71
2023/04/04 08:26:29;;;;;;;5.20;3.80;;;;;;;;;;5017370;28;20204;-71
2023/04/04 08:28:56;;;;;;;7.78;4.15;;;;;;;;;;5016310;28;20199;-71
2023/04/04 08:31:23;;;;;;;7.20;5.18;;;;;;;;;;5016942;28;20213;-71
2023/04/04 08:33:51;;;;;;;5.13;2.90;;;;;;;;;;5016970;28;20312;-71
2023/04/04 08:36:19;;;;;;;10.23;3.50;;;;;;;;;;5016557;28;20238;-71
2023/04/04 08:38:47;;;;;;;8.23;2.78;;;;;;;;;;5016540;28;20230;-71
2023/04/04 08:41:15;;;;;;;8.07;3.70;;;;;;;;;;5016994;28;20550;-71
2023/04/04 08:43:45;;;;;;;4.88;3.00;;;;;;;;;;5016590;28;20195;-71
2023/04/04 08:46:14;;;;;;;8.00;3.03;;;;;;;;;;5016582;28;20203;-71
2023/04/04 08:48:43;;;;;;;6.38;3.40;;;;;;;;;;5016863;28;20212;-71
2023/04/04 08:51:12;;;;;;;3.53;2.70;;;;;;;;;;5016814;28;20294;-71
2023/04/04 08:53:41;;;;;;;4.72;2.70;;;;;;;;;;5016677;28;20201;-71
2023/04/04 08:56:09;;;;;;;5.35;3.03;;;;;;;;;;5016372;28;20218;-71
2023/04/04 08:58:37;;;;;;;2.70;2.30;;;;;;;;;;5016875;28;20196;-71
2023/04/04 09:01:05;;;;;;;6.05;2.70;;;;;;;;;;5016638;28;20199;-71
2023/04/04 09:03:33;;;;;;;6.38;3.67;;;;;;;;;;5016418;28;20214;-71
2023/04/04 09:06:02;;;;;;;3.60;2.63;;;;;;;;;;5016200;28;20262;-71
2023/04/04 09:08:29;;;;;;;4.88;2.40;;;;;;;;;;5016837;28;20555;-71
2023/04/04 09:10:58;;;;;;;3.45;2.72;;;;;;;;;;5016496;28;20199;-71
2023/04/04 09:13:25;;;;;;;2.95;2.45;;;;;;;;;;5016786;28;20198;-71
2023/04/04 09:15:54;;;;;;;6.07;2.97;;;;;;;;;;5015406;28;20706;-71
2023/04/04 09:18:21;;;;;;;4.07;2.30;;;;;;;;;;5016823;28;20202;-71
2023/04/04 09:20:49;;;;;;;6.15;2.97;;;;;;;;;;5016165;28;20726;-71
2023/04/04 09:23:17;;;;;;;2.80;2.20;;;;;;;;;;5016323;28;20203;-71
2023/04/04 09:25:48;;;;;;;2.35;1.88;;;;;;;;;;5016240;28;20289;-71
2023/04/04 09:28:17;;;;;;;5.13;3.05;;;;;;;;;;5015798;28;20724;-72
2023/04/04 09:30:44;;;;;;;2.95;2.40;;;;;;;;;;5015797;28;20208;-71
2023/04/04 09:33:12;;;;;;;5.18;2.30;;;;;;;;;;5016376;28;20234;-71
2023/04/04 09:35:41;;;;;;;6.05;2.53;;;;;;;;;;5015305;28;20240;-71
2023/04/04 09:38:08;;;;;;;13.30;8.10;;;;;;;;;;5015797;28;20664;-71
2023/04/04 09:40:36;;;;;;;3.45;2.40;;;;;;;;;;5015940;28;20203;-71
2023/04/04 09:43:04;;;;;;;4.07;2.30;;;;;;;;;;5015705;28;20204;-71
2023/04/04 09:45:33;;;;;;;3.90;2.50;;;;;;;;;;5015998;28;20298;-71
2023/04/04 09:48:01;;;;;;;4.55;2.63;;;;;;;;;;5015672;28;20195;-71
2023/04/04 09:50:29;;;;;;;2.85;2.63;;;;;;;;;;5015679;28;20283;-71
2023/04/04 09:52:58;;;;;;;3.70;3.08;;;;;;;;;;5015213;28;20199;-72
2023/04/04 09:55:32;;;;;;;5.90;3.20;;;;;;;;;;5015319;28;20342;-70
2023/04/04 09:58:01;;;;;;;3.85;2.70;;;;;;;;;;5015600;28;20188;-71
2023/04/04 10:00:32;;;;;;;12.93;3.20;;;;;;;;;;5015220;28;20646;-71
2023/04/04 10:03:03;;;;;;;3.17;2.53;;;;;;;;;;5016096;28;20196;-71
2023/04/04 10:05:30;;;;;;;3.50;3.03;;;;;;;;;;5015057;28;20196;-71
2023/04/04 10:07:58;;;;;;;3.72;2.50;;;;;;;;;;5015712;28;20295;-71
2023/04/04 10:10:30;;;;;;;4.13;2.83;;;;;;;;;;5015292;28;20595;-71
2023/04/04 10:12:58;;;;;;;4.95;3.80;;;;;;;;;;5015108;28;20188;-71
2023/04/04 10:15:37;;;;;;;6.75;4.30;;;;;;;;;;5015433;28;20227;-71
2023/04/04 10:18:06;;;;;;;10.85;4.15;;;;;;;;;;5015379;28;20537;-71
2023/04/04 10:20:34;;;;;;;5.53;2.97;;;;;;;;;;5015082;28;20257;-71
2023/04/04 10:23:01;;;;;;;7.10;3.63;;;;;;;;;;5015134;28;20196;-71
2023/04/04 10:25:29;;;;;;;4.10;2.80;;;;;;;;;;5015188;28;20224;-71
2023/04/04 10:27:56;;;;;;;4.47;2.60;;;;;;;;;;5014464;28;20528;-71
2023/04/04 10:30:24;;;;;;;8.07;2.65;;;;;;;;;;5014924;28;20552;-71
2023/04/04 10:32:57;;;;;;;3.63;2.63;;;;;;;;;;5015432;28;20214;-71
2023/04/04 10:35:27;;;;;;;5.50;3.10;;;;;;;;;;5014709;28;20234;-71
2023/04/04 10:37:58;;;;;;;8.05;2.95;;;;;;;;;;5014525;28;20291;-71
2023/04/04 10:40:27;;;;;;;5.13;2.75;;;;;;;;;;5015537;28;20503;-71
2023/04/04 10:42:56;;;;;;;4.80;2.83;;;;;;;;;;5014500;28;20198;-71
2023/04/04 10:45:24;;;;;;;3.70;2.83;;;;;;;;;;5014639;28;20296;-70
2023/04/04 10:47:52;;;;;;;5.05;3.53;;;;;;;;;;5014767;28;20614;-71
2023/04/04 10:50:20;;;;;;;5.32;3.70;;;;;;;;;;5014293;28;20202;-71
2023/04/04 10:52:49;;;;;;;6.47;3.45;;;;;;;;;;5014347;28;20204;-71
2023/04/04 10:55:17;;;;;;;5.38;3.10;;;;;;;;;;5014769;28;20255;-71
2023/04/04 10:57:46;;;;;;;5.07;3.15;;;;;;;;;;5014289;28;20197;-71
2023/04/04 11:00:16;;;;;;;4.80;3.30;;;;;;;;;;5014062;28;20199;-71
2023/04/04 11:02:48;;;;;;;9.55;3.17;;;;;;;;;;5014410;28;20691;-71
2023/04/04 11:05:18;;;;;;;4.63;3.35;;;;;;;;;;5014634;28;20211;-71
2023/04/04 11:07:45;;;;;;;3.25;2.53;;;;;;;;;;5014413;28;20285;-71
2023/04/04 11:10:22;;;;;;;3.00;2.72;;;;;;;;;;5014225;28;20203;-71
2023/04/04 11:12:53;;;;;;;3.33;2.60;;;;;;;;;;5014513;28;20210;-71
2023/04/04 11:15:21;;;;;;;3.35;2.83;;;;;;;;;;5014413;28;20285;-71
2023/04/04 11:17:59;;;;;;;4.35;2.83;;;;;;;;;;5014936;28;20199;-71
2023/04/04 11:20:37;;;;;;;5.13;3.25;;;;;;;;;;5013844;28;20184;-71
2023/04/04 11:23:06;;;;;;;3.67;3.10;;;;;;;;;;5014542;28;20631;-71
2023/04/04 11:25:36;;;;;;;6.68;5.20;;;;;;;;;;5014042;28;20610;-71
2023/04/04 11:28:07;;;;;;;3.00;2.80;;;;;;;;;;5013705;28;20724;-71
2023/04/04 11:30:47;;;;;;;3.17;2.60;;;;;;;;;;5014217;28;20561;-71
2023/04/04 11:33:14;;;;;;;4.32;2.60;;;;;;;;;;5014140;28;20209;-71
2023/04/04 11:35:47;;;;;;;3.95;2.70;;;;;;;;;;5013631;28;20246;-71
2023/04/04 11:38:15;;;;;;;4.80;2.90;;;;;;;;;;5013936;28;20185;-71
2023/04/04 11:40:53;;;;;;;2.90;2.63;;;;;;;;;;5014019;28;20287;-71
2023/04/04 11:43:21;;;;;;;3.10;2.60;;;;;;;;;;5014096;28;20223;-71
2023/04/04 11:45:49;;;;;;;4.45;3.35;;;;;;;;;;5013897;28;20202;-71
2023/04/04 11:48:17;;;;;;;8.10;4.47;;;;;;;;;;5013788;28;20251;-71
2023/04/04 11:50:48;;;;;;;8.25;3.30;;;;;;;;;;5013387;28;20431;-71
2023/04/04 11:53:16;;;;;;;2.10;2.00;;;;;;;;;;5013878;28;20554;-71
2023/04/04 11:55:46;;;;;;;4.22;2.70;;;;;;;;;;5013897;28;20310;-71
2023/04/04 11:58:14;;;;;;;3.85;3.08;;;;;;;;;;5013469;28;20239;-71
2023/04/04 12:00:42;;;;;;;4.17;2.70;;;;;;;;;;5013586;28;20295;-71
2023/04/04 12:03:11;;;;;;;4.43;3.07;;;;;;;;;;5013257;28;20456;-71
2023/04/04 12:05:38;;;;;;;5.45;3.00;;;;;;;;;;5013166;28;20477;-71
2023/04/04 12:08:06;;;;;;;6.38;2.90;;;;;;;;;;5013272;28;20745;-71
2023/04/04 12:10:35;;;;;;;3.60;2.92;;;;;;;;;;5012769;28;20196;-72
2023/04/04 12:13:06;;;;;;;4.45;3.40;;;;;;;;;;5012851;28;20196;-71
2023/04/04 12:15:34;;;;;;;4.93;3.30;;;;;;;;;;5011191;28;20209;-73
2023/04/04 12:18:02;;;;;;;10.15;4.20;;;;;;;;;;4992947;28;20201;-72
2023/04/04 12:20:31;;;;;;;3.90;2.50;;;;;;;;;;4993207;28;20762;-70
2023/04/04 12:22:58;;;;;;;4.05;2.88;;;;;;;;;;4993843;28;20504;-72
2023/04/04 12:25:27;;;;;;;4.13;2.80;;;;;;;;;;4993328;28;20341;-71
2023/04/04 12:27:55;;;;;;;7.88;3.10;;;;;;;;;;4993496;28;20215;-71
2023/04/04 12:30:24;;;;;;;3.40;3.08;;;;;;;;;;4993337;28;20565;-71
2023/04/04 12:32:51;;;;;;;3.03;2.72;;;;;;;;;;4993526;28;20200;-71
2023/04/04 12:35:19;;;;;;;5.07;3.05;;;;;;;;;;4992785;28;20315;-71
2023/04/04 12:37:57;;;;;;;6.17;3.80;;;;;;;;;;4993741;28;20596;-71
2023/04/04 12:40:30;;;;;;;3.53;3.22;;;;;;;;;;4993214;28;20507;-71
2023/04/04 12:42:58;;;;;;;4.28;3.28;;;;;;;;;;5010387;28;20197;-72
2023/04/04 12:45:28;;;;;;;5.68;3.40;;;;;;;;;;5013088;28;20238;-71
2023/04/04 12:47:56;;;;;;;4.32;3.25;;;;;;;;;;5013547;28;20637;-72
2023/04/04 12:50:25;;;;;;;6.82;3.75;;;;;;;;;;5014882;28;20577;-70
2023/04/04 12:52:53;;;;;;;3.50;2.92;;;;;;;;;;5016590;28;20258;-71
2023/04/04 12:55:21;;;;;;;3.22;2.90;;;;;;;;;;5016400;28;20196;-73
2023/04/04 12:57:49;;;;;;;4.65;3.38;;;;;;;;;;5016864;28;20258;-73
2023/04/04 13:00:17;;;;;;;3.40;3.10;;;;;;;;;;5016386;28;20202;-71
2023/04/04 13:02:46;;;;;;;4.85;4.32;;;;;;;;;;5016274;28;20447;-72
2023/04/04 13:05:16;;;;;;;3.05;2.85;;;;;;;;;;5016654;28;20202;-73
2023/04/04 13:07:43;;;;;;;4.22;3.33;;;;;;;;;;5015417;28;20239;-73
2023/04/04 13:10:12;;;;;;;5.00;3.70;;;;;;;;;;5016144;28;20196;-74
2023/04/04 13:12:53;;;;;;;8.50;3.97;;;;;;;;;;5014693;28;20497;-72
2023/04/04 13:15:20;;;;;;;5.80;3.58;;;;;;;;;;5016630;28;20595;-72
2023/04/04 13:17:50;;;;;;;4.15;3.17;;;;;;;;;;5015846;28;20229;-72
2023/04/04 13:20:18;;;;;;;4.03;3.55;;;;;;;;;;5015731;28;20196;-72
2023/04/04 13:22:45;;;;;;;6.93;4.07;;;;;;;;;;5015866;28;20228;-72
2023/04/04 13:25:12;;;;;;;5.17;3.33;;;;;;;;;;5015821;28;20470;-72
2023/04/04 13:27:40;;;;;;;8.50;3.73;;;;;;;;;;5016015;28;20471;-72
2023/04/04 13:30:08;;;;;;;6.90;3.50;;;;;;;;;;5016844;28;20446;-72
2023/04/04 13:32:35;;;;;;;3.27;2.97;;;;;;;;;;5015869;28;20446;-68
2023/04/04 13:35:04;;;;;;;5.97;3.43;;;;;;;;;;5016180;28;20483;-71
2023/04/04 13:37:31;;;;;;;4.53;3.73;;;;;;;;;;5015706;28;20537;-71
2023/04/04 13:39:58;;;;;;;3.67;3.40;;;;;;;;;;5015808;28;20807;-70
2023/04/04 13:42:29;;;;;;;4.82;3.15;;;;;;;;;;5015199;28;20526;-72
2023/04/04 13:44:57;;;;;;;6.60;3.30;;;;;;;;;;5015687;28;20212;-71
2023/04/04 13:47:26;;;;;;;4.30;3.90;;;;;;;;;;5015779;28;20976;-71
2023/04/04 13:49:53;;;;;;;5.43;3.67;;;;;;;;;;5015517;28;20534;-70
2023/04/04 13:52:22;;;;;;;4.00;3.20;;;;;;;;;;5015595;28;20930;-71
2023/04/04 13:54:49;;;;;;;4.97;3.90;;;;;;;;;;5015403;28;20793;-71
2023/04/04 13:57:17;;;;;;;7.30;4.13;;;;;;;;;;5015191;28;21070;-70
2023/04/04 13:59:44;;;;;;;4.83;3.10;;;;;;;;;;5015453;28;20456;-70
2023/04/04 14:02:12;;;;;;;5.10;3.80;;;;;;;;;;5015095;28;20452;-71
2023/04/04 14:04:39;;;;;;;4.87;4.47;;;;;;;;;;5014811;28;20452;-76
2023/04/04 14:07:07;;;;;;;7.30;3.47;;;;;;;;;;5015136;28;20547;-70
2023/04/04 14:09:35;;;;;;;5.57;3.70;;;;;;;;;;5015265;28;20482;-69
2023/04/04 14:12:02;;;;;;;4.00;3.60;;;;;;;;;;5014824;28;20852;-70
2023/04/04 14:14:29;;;;;;;4.23;3.20;;;;;;;;;;5015198;28;20452;-70
2023/04/04 14:16:57;;;;;;;5.50;3.93;;;;;;;;;;5014966;28;20530;-70
2023/04/04 14:19:24;;;;;;;4.80;3.20;;;;;;;;;;5015295;28;20435;-70
2023/04/04 14:21:51;;;;;;;4.33;3.43;;;;;;;;;;5015221;28;20878;-70
2023/04/04 14:24:18;;;;;;;5.23;3.57;;;;;;;;;;5015224;28;20479;-70
2023/04/04 14:26:47;;;;;;;9.17;3.53;;;;;;;;;;5014995;28;20797;-70
2023/04/04 14:29:14;;;;;;;3.90;3.40;;;;;;;;;;5015072;28;20452;-70
2023/04/04 14:31:42;;;;;;;4.47;3.57;;;;;;;;;;5014746;28;20452;-71
2023/04/04 14:34:09;;;;;;;4.57;3.77;;;;;;;;;;5014603;28;20546;-69
2023/04/04 14:36:36;;;;;;;4.13;3.43;;;;;;;;;;5014593;28;20495;-70
2023/04/04 14:39:03;;;;;;;5.27;3.43;;;;;;;;;;5014576;28;20444;-70
2023/04/04 14:41:30;;;;;;;4.40;3.77;;;;;;;;;;5013897;28;20444;-70
2023/04/04 14:43:59;;;;;;;4.70;3.83;;;;;;;;;;5014586;28;20475;-70
2023/04/04 14:46:27;;;;;;;6.70;5.83;;;;;;;;;;5014820;28;20863;-70
2023/04/04 14:48:54;;;;;;;5.13;4.53;;;;;;;;;;5014136;28;20925;-70